If you wish to contribute or participate in the discussions about articles you are invited to join SKYbrary as a registered user

Atyrau Airport

From SKYbrary Wiki
UATG
Airport
ICAO: UATG – IATA: GUW
Summary
Name Atyrau Airport
Region Asia and Pacific
Territory Kazakhstan KZ.gif
Location Atyrau
Serving Atyrau
Elevation -21.946 m
-72 ft
-72 ft-21.946 m
Coordinates 47° 7' 19.231", 51° 49' 23.5071"
Runways
Designator Length Width Surface ROPS
14/32 3000 m9,842.52 ft 44 m144.357 ft ASP yes/yes
METAR
Observation UATG 241700Z 03004MPS CAVOK 17/M02 Q1024 R32/CLRD70 NOSIG RMK QFE770/1026
Station ATYRAU
Date/Time 24 September 2017 17:00:00
Wind direction 30°
Wind speed kts
Lowest cloud amount clouds and visibility OK
Temperature 17°C
Dew point
Humidity 27%
QNH 1024 hPa
Weather condition n/a

BS
Tag(s) Bird Strike
CFIT
Tag(s) Altimeter Temperature Error Correction
WX
Tag(s) Cumulonimbus
Fog
Freezing Rain

Atyrau Airport

ICAO: UATG IATA: GUW

Description

International airport serving Atyrau, Kazakhstan.

Climatology

Cold Semi-arid climate (Köppen climate classification BSk). - Hot, sometimes extremely hot summers and cold, sometimes very cold winters. Some snowfall during the winter. Areas featuring cold semi-arid climates are sometimes subject to major temperature swings during a 24 hour period.

Maps

Terrain

Loading map...

Airport Layout

Loading map...


Accidents & Serious Incidents at or in vicinity of UATG

None on SKYbrary